Time;durP1;ratioP1;P1;durP2;ratioP2;P2;SDS_P1;SDS_P2;PMS_P1;PMS_P2;Temp;Humidity;BMP_temperature;BMP_pressure;BME280_temperature;BME280_humidity;BME280_pressure;Samples;Min_cycle;Max_cycle;Signal;HPM_P1;HPM_P2
2022/11/28 00:01:41;;;;;;;;;;;;;;;-143.57;100.00;51338.78;5050134;28;19963;-73
2022/11/28 00:04:09;;;;;;;;;;;;;;;-143.57;100.00;51350.69;5050133;28;20024;-74
2022/11/28 00:06:37;;;;;;;;;;;;;;;-143.57;100.00;51342.75;5057205;28;19935;-74
2022/11/28 00:09:04;;;;;;;;;;;;;;;-143.57;100.00;51354.66;5053129;28;20016;-73
2022/11/28 00:11:31;;;;;;;;;;;;;;;-143.57;100.00;51314.91;5056875;28;19935;-74
2022/11/28 00:13:58;;;;;;;;;;;;;;;-143.57;100.00;51342.75;5053816;28;19928;-75
2022/11/28 00:16:25;;;;;;;;;;;;;;;-143.57;100.00;51314.91;5049971;28;19924;-75
2022/11/28 00:18:53;;;;;;;;;;;;;;;-143.57;100.00;51338.78;5057741;28;19928;-74
2022/11/28 00:21:20;;;;;;;;;;;;;;;-143.57;100.00;51310.94;5047525;28;19940;-75
2022/11/28 00:23:47;;;;;;;;;;;;;;;-143.57;100.00;51338.78;5051256;28;20424;-74
2022/11/28 00:26:33;;;;;;;;;;;;;;;-143.57;100.00;51350.69;5050585;28;19929;-74
2022/11/28 00:29:01;;;;;;;;;;;;;;;-143.57;100.00;51346.72;5050455;28;19924;-74
2022/11/28 00:31:33;;;;;;;;;;;;;;;-143.57;100.00;51322.88;5051344;28;20019;-75
2022/11/28 00:34:03;;;;;;;;;;;;;;;-143.57;100.00;51342.75;5053566;28;19931;-74
2022/11/28 00:36:30;;;;;;;;;;;;;;;-143.57;100.00;51338.78;5056549;28;19932;-73
2022/11/28 00:38:56;;;;;;;;;;;;;;;-143.57;100.00;51358.66;5052399;28;19924;-74
2022/11/28 00:41:24;;;;;;;;;;;;;;;-143.57;100.00;51364.63;5054925;28;19928;-73
2022/11/28 00:43:51;;;;;;;;;;;;;;;-143.57;100.00;51310.94;5052505;28;19932;-73
2022/11/28 00:46:18;;;;;;;;;;;;;;;-143.57;100.00;51364.63;5055223;28;19937;-74
2022/11/28 00:48:45;;;;;;;;;;;;;;;-143.57;100.00;51366.59;5045704;28;20150;-73
2022/11/28 00:51:14;;;;;;;;;;;;;;;-143.57;100.00;51352.69;5056905;28;20012;-74
2022/11/28 00:53:46;;;;;;;;;;;;;;;-143.57;100.00;51342.75;5057757;28;19939;-74
2022/11/28 00:56:14;;;;;;;;;;;;;;;-143.57;100.00;51330.81;5056658;28;19940;-74
2022/11/28 00:58:41;;;;;;;;;;;;;;;-143.57;100.00;51334.78;5053835;28;19925;-74
2022/11/28 01:01:15;;;;;;;;;;;;;;;-143.57;100.00;51346.72;5054486;28;19936;-74
2022/11/28 01:03:44;;;;;;;;;;;;;;;-143.57;100.00;51336.78;5056319;28;19928;-75
2022/11/28 01:06:12;;;;;;;;;;;;;;;-143.57;100.00;51324.84;5062428;28;19962;-75
2022/11/28 01:08:38;;;;;;;;;;;;;;;-143.57;100.00;51340.75;5056615;28;19964;-74
2022/11/28 01:11:10;;;;;;;;;;;;;;;-143.57;100.00;51326.84;5064926;28;19954;-75
2022/11/28 01:13:38;;;;;;;;;;;;;;;-143.57;100.00;51326.84;5056945;28;19925;-75
2022/11/28 01:16:06;;;;;;;;;;;;;;;-143.57;100.00;51358.66;5060105;28;19928;-75
2022/11/28 01:18:33;;;;;;;;;;;;;;;-143.57;100.00;51366.59;5068337;28;19924;-74
2022/11/28 01:21:00;;;;;;;;;;;;;;;-143.57;100.00;51295.03;5062844;28;19971;-73
2022/11/28 01:23:27;;;;;;;;;;;;;;;-143.57;100.00;51334.78;5065446;28;19925;-75
2022/11/28 01:25:53;;;;;;;;;;;;;;;-143.57;100.00;51362.63;5057505;28;19929;-75
2022/11/28 01:28:20;;;;;;;;;;;;;;;-143.57;100.00;51322.88;5068041;28;19934;-74
2022/11/28 01:30:47;;;;;;;;;;;;;;;-143.57;100.00;51350.69;5064460;28;19924;-75
2022/11/28 01:33:14;;;;;;;;;;;;;;;-143.57;100.00;51314.91;5056216;28;19928;-75
2022/11/28 01:35:41;;;;;;;;;;;;;;;-143.57;100.00;51336.78;5056989;28;20019;-74
2022/11/28 01:38:08;;;;;;;;;;;;;;;-143.57;100.00;51314.91;5059031;28;19928;-73
2022/11/28 01:40:34;;;;;;;;;;;;;;;-143.57;100.00;51346.72;5057880;28;20670;-74
2022/11/28 01:43:01;;;;;;;;;;;;;;;-143.57;100.00;51354.66;5056635;28;19958;-74
2022/11/28 01:45:29;;;;;;;;;;;;;;;-143.57;100.00;51330.81;5060021;28;21362;-74
2022/11/28 01:48:01;;;;;;;;;;;;;;;-143.57;100.00;51342.75;5055404;28;19932;-74
2022/11/28 01:50:30;;;;;;;;;;;;;;;-143.57;100.00;51318.88;5060336;28;19928;-74
2022/11/28 01:52:58;;;;;;;;;;;;;;;-143.57;100.00;51299.00;5055130;28;19932;-74
2022/11/28 01:55:27;;;;;;;;;;;;;;;-143.57;100.00;51322.88;5057150;28;20634;-74
2022/11/28 01:57:54;;;;;;;;;;;;;;;-143.57;100.00;51346.72;5059312;28;20039;-75
2022/11/28 02:00:22;;;;;;;;;;;;;;;-143.57;100.00;51320.88;5060735;28;19995;-75
2022/11/28 02:02:51;;;;;;;;;;;;;;;-143.57;100.00;51338.78;5057280;28;20433;-75
2022/11/28 02:05:19;;;;;;;;;;;;;;;-143.57;100.00;51338.78;5060019;28;20003;-75
2022/11/28 02:07:47;;;;;;;;;;;;;;;-143.57;100.00;51350.69;5061946;28;20015;-73
2022/11/28 02:10:15;;;;;;;;;;;;;;;-143.57;100.00;51326.84;5059150;28;19925;-75
2022/11/28 02:12:45;;;;;;;;;;;;;;;-143.57;100.00;51354.66;5062153;28;19963;-75
2022/11/28 02:15:15;;;;;;;;;;;;;;;-143.57;100.00;51350.69;5059772;28;20564;-74
2022/11/28 02:18:00;;;;;;;;;;;;;;;-143.57;100.00;51348.72;5069314;28;19935;-75
2022/11/28 02:20:40;;;;;;;;;;;;;;;-143.57;100.00;51342.75;5065133;28;19978;-74
2022/11/28 02:23:16;;;;;;;;;;;;;;;-143.57;100.00;51344.72;5059944;28;19924;-73
2022/11/28 02:25:43;;;;;;;;;;;;;;;-143.57;100.00;51354.66;5062083;28;19967;-73
2022/11/28 02:28:28;;;;;;;;;;;;;;;-143.57;100.00;51334.78;5064279;28;19924;-73
2022/11/28 02:31:14;;;;;;;;;;;;;;;-143.57;100.00;51326.84;5054845;28;19975;-73
2022/11/28 02:33:44;;;;;;;;;;;;;;;-143.57;100.00;51297.03;5061934;28;19928;-73
2022/11/28 02:36:11;;;;;;;;;;;;;;;-143.57;100.00;51340.75;5061973;28;19960;-73
2022/11/28 02:38:41;;;;;;;;;;;;;;;-143.57;100.00;51362.63;5063747;28;19932;-74
2022/11/28 02:41:26;;;;;;;;;;;;;;;-143.57;100.00;51342.75;5059483;28;19933;-73
2022/11/28 02:44:00;;;;;;;;;;;;;;;-143.57;100.00;51370.56;5061099;28;20401;-73
2022/11/28 02:46:38;;;;;;;;;;;;;;;-143.57;100.00;51322.88;5053393;28;19939;-73
2022/11/28 02:49:15;;;;;;;;;;;;;;;-143.57;100.00;51334.78;5066201;28;21367;-73
2022/11/28 02:51:53;;;;;;;;;;;;;;;-143.57;100.00;51340.75;5059307;28;20411;-74
2022/11/28 02:54:20;;;;;;;;;;;;;;;-143.57;100.00;51338.78;5063456;28;19932;-74
2022/11/28 02:56:50;;;;;;;;;;;;;;;-143.57;100.00;51334.78;5058096;28;19925;-73
2022/11/28 02:59:37;;;;;;;;;;;;;;;-143.57;100.00;51310.94;5057969;28;20016;-73
2022/11/28 03:02:09;;;;;;;;;;;;;;;-143.57;100.00;51350.69;5057601;28;19936;-73
2022/11/28 03:04:45;;;;;;;;;;;;;;;-143.57;100.00;51299.00;5067620;28;19931;-73
2022/11/28 03:07:33;;;;;;;;;;;;;;;-143.57;100.00;51318.88;5059121;28;19924;-73
2022/11/28 03:10:17;;;;;;;;;;;;;;;-143.57;100.00;51362.63;5061482;28;19959;-73
2022/11/28 03:12:44;;;;;;;;;;;;;;;-143.57;100.00;51350.69;5069216;28;19947;-73
2022/11/28 03:15:13;;;;;;;;;;;;;;;-143.57;100.00;51322.88;5060418;28;19986;-73
2022/11/28 03:17:43;;;;;;;;;;;;;;;-143.57;100.00;51356.66;5059845;28;19936;-73
2022/11/28 03:20:10;;;;;;;;;;;;;;;-143.57;100.00;51314.91;5060604;28;20411;-72
2022/11/28 03:22:40;;;;;;;;;;;;;;;-143.57;100.00;51374.56;5062633;28;20535;-73
2022/11/28 03:25:11;;;;;;;;;;;;;;;-143.57;100.00;51318.88;5054212;28;19971;-73
2022/11/28 03:27:50;;;;;;;;;;;;;;;-143.57;100.00;51310.94;5056802;28;19956;-73
2022/11/28 03:30:23;;;;;;;;;;;;;;;-143.57;100.00;51394.44;5060214;28;20570;-73
2022/11/28 03:32:52;;;;;;;;;;;;;;;-143.57;100.00;51334.78;5062488;28;19932;-73
2022/11/28 03:35:22;;;;;;;;;;;;;;;-143.57;100.00;51362.63;5055582;28;19998;-73
2022/11/28 03:37:54;;;;;;;;;;;;;;;-143.57;100.00;51336.78;5059257;28;19940;-73
2022/11/28 03:40:24;;;;;;;;;;;;;;;-143.57;100.00;51338.78;5058818;28;19932;-73
2022/11/28 03:42:58;;;;;;;;;;;;;;;-143.57;100.00;51370.56;5052962;28;19928;-73
2022/11/28 03:45:27;;;;;;;;;;;;;;;-143.57;100.00;51346.72;5055900;28;21413;-73
2022/11/28 03:48:01;;;;;;;;;;;;;;;-143.57;100.00;51342.75;5072879;28;19978;-73
2022/11/28 03:50:32;;;;;;;;;;;;;;;-143.57;100.00;51374.56;5056919;28;19985;-73
2022/11/28 03:53:05;;;;;;;;;;;;;;;-143.57;100.00;51334.78;5064029;28;19924;-72
2022/11/28 03:55:35;;;;;;;;;;;;;;;-143.57;100.00;51350.69;5055386;28;19932;-73
2022/11/28 03:58:16;;;;;;;;;;;;;;;-143.57;100.00;51320.88;5055908;28;20576;-73
2022/11/28 04:01:00;;;;;;;;;;;;;;;-143.57;100.00;51348.72;5056759;28;19932;-73
2022/11/28 04:03:32;;;;;;;;;;;;;;;-143.57;100.00;51338.78;5060040;28;19982;-73
2022/11/28 04:06:03;;;;;;;;;;;;;;;-143.57;100.00;51346.72;5072329;28;19931;-74
2022/11/28 04:08:31;;;;;;;;;;;;;;;-143.57;100.00;51330.81;5060675;28;20047;-73
2022/11/28 04:11:24;;;;;;;;;;;;;;;-143.57;100.00;51338.78;5056881;28;20423;-74
2022/11/28 04:13:57;;;;;;;;;;;;;;;-143.57;100.00;51303.00;5063244;28;20372;-73
2022/11/28 04:16:33;;;;;;;;;;;;;;;-143.57;100.00;51354.66;5058307;28;20017;-73
2022/11/28 04:19:14;;;;;;;;;;;;;;;-143.57;100.00;51370.56;5055552;28;19964;-73
2022/11/28 04:22:01;;;;;;;;;;;;;;;-143.57;100.00;51338.78;5051282;28;19924;-73
2022/11/28 04:24:32;;;;;;;;;;;;;;;-143.57;100.00;51342.75;5067179;28;20550;-73
2022/11/28 04:27:02;;;;;;;;;;;;;;;-143.57;100.00;51342.75;5058267;28;19928;-73
2022/11/28 04:29:33;;;;;;;;;;;;;;;-143.57;100.00;51338.78;5060754;28;20467;-73
2022/11/28 04:32:00;;;;;;;;;;;;;;;-143.57;100.00;51356.66;5056697;28;20593;-73
2022/11/28 04:34:29;;;;;;;;;;;;;;;-143.57;100.00;51295.03;5058680;28;19924;-73
2022/11/28 04:36:58;;;;;;;;;;;;;;;-143.57;100.00;51356.66;5057745;28;19992;-73
2022/11/28 04:39:30;;;;;;;;;;;;;;;-143.57;100.00;51318.88;5058488;28;19961;-74
2022/11/28 04:42:10;;;;;;;;;;;;;;;-143.57;100.00;51350.69;5064501;28;19942;-73
2022/11/28 04:44:50;;;;;;;;;;;;;;;-143.57;100.00;51330.81;5057255;28;19925;-73
2022/11/28 04:47:17;;;;;;;;;;;;;;;-143.57;100.00;51334.78;5063531;28;19924;-74
2022/11/28 04:49:44;;;;;;;;;;;;;;;-143.57;100.00;51354.66;5056975;28;20026;-73
2022/11/28 04:52:18;;;;;;;;;;;;;;;-143.57;100.00;51346.72;5065334;28;19928;-74
2022/11/28 04:54:51;;;;;;;;;;;;;;;-143.57;100.00;51303.00;5059675;28;19959;-74
2022/11/28 04:57:23;;;;;;;;;;;;;;;-143.57;100.00;51350.69;5057621;28;19925;-74
2022/11/28 04:59:50;;;;;;;;;;;;;;;-143.57;100.00;51322.88;5056611;28;19928;-73
2022/11/28 05:02:18;;;;;;;;;;;;;;;-143.57;100.00;51362.63;5064158;28;20024;-74
2022/11/28 05:04:45;;;;;;;;;;;;;;;-143.57;100.00;51350.69;5056251;28;19924;-73
2022/11/28 05:07:12;;;;;;;;;;;;;;;-143.57;100.00;51348.72;5066448;28;19924;-78
2022/11/28 05:09:39;;;;;;;;;;;;;;;-143.57;100.00;51314.91;5065004;28;19936;-76
2022/11/28 05:12:06;;;;;;;;;;;;;;;-143.57;100.00;51318.88;5063480;28;19928;-76
2022/11/28 05:14:33;;;;;;;;;;;;;;;-143.57;100.00;51378.53;5072907;28;19939;-76
2022/11/28 05:17:00;;;;;;;;;;;;;;;-143.57;100.00;51338.78;5071447;28;19928;-76
2022/11/28 05:19:30;;;;;;;;;;;;;;;-143.57;100.00;51338.78;5071324;28;20392;-76
2022/11/28 05:21:58;;;;;;;;;;;;;;;-143.57;100.00;51338.78;5073575;28;20001;-77
2022/11/28 05:24:25;;;;;;;;;;;;;;;-143.57;100.00;51336.78;5079250;28;19933;-77
2022/11/28 05:26:57;;;;;;;;;;;;;;;-143.57;100.00;51334.78;5074854;28;19975;-78
2022/11/28 05:29:24;;;;;;;;;;;;;;;-143.57;100.00;51346.72;5084773;28;19947;-77
2022/11/28 05:31:51;;;;;;;;;;;;;;;-143.57;100.00;51368.59;5064589;28;19960;-78
2022/11/28 05:34:20;;;;;;;;;;;;;;;-143.57;100.00;51330.81;5084104;28;19955;-74
2022/11/28 05:36:46;;;;;;;;;;;;;;;-143.57;100.00;51358.66;5068341;28;19970;-76
2022/11/28 05:39:13;;;;;;;;;;;;;;;-143.57;100.00;51356.66;5077160;28;20005;-77
2022/11/28 05:41:40;;;;;;;;;;;;;;;-143.57;100.00;51370.56;5075956;28;20006;-77
2022/11/28 05:44:08;;;;;;;;;;;;;;;-143.57;100.00;51336.78;5074944;28;19925;-78
2022/11/28 05:46:37;;;;;;;;;;;;;;;-143.57;100.00;51336.78;5086105;28;20412;-78
2022/11/28 05:49:04;;;;;;;;;;;;;;;-143.57;100.00;51346.72;5093669;28;19924;-77
2022/11/28 05:51:31;;;;;;;;;;;;;;;-143.57;100.00;51328.81;5088598;28;19928;-77
2022/11/28 05:53:59;;;;;;;;;;;;;;;-143.57;100.00;51326.84;5085213;28;19925;-77
2022/11/28 05:56:26;;;;;;;;;;;;;;;-143.57;100.00;51314.91;5092210;28;19942;-77
2022/11/28 05:58:53;;;;;;;;;;;;;;;-143.57;100.00;51338.78;5068911;28;19924;-75
2022/11/28 06:01:24;;;;;;;;;;;;;;;-143.57;100.00;51390.47;5065716;28;19929;-71
2022/11/28 06:03:56;;;;;;;;;;;;;;;-143.57;100.00;51358.66;5058029;28;19964;-65
2022/11/28 06:06:24;;;;;;;;;;;;;;;-143.57;100.00;51356.66;5058914;28;19928;-65
2022/11/28 06:08:51;;;;;;;;;;;;;;;-143.57;100.00;51342.75;5058577;28;19932;-64
2022/11/28 06:11:19;;;;;;;;;;;;;;;-143.57;100.00;51354.66;5062962;28;19924;-65
2022/11/28 06:13:46;;;;;;;;;;;;;;;-143.57;100.00;51342.75;5061501;28;19931;-65
2022/11/28 06:16:14;;;;;;;;;;;;;;;-143.57;100.00;51326.84;5058783;28;19924;-65
2022/11/28 06:18:41;;;;;;;;;;;;;;;-143.57;100.00;51344.72;5062497;28;19983;-65
2022/11/28 06:21:09;;;;;;;;;;;;;;;-143.57;100.00;51306.97;5054471;28;19960;-65
2022/11/28 06:23:36;;;;;;;;;;;;;;;-143.57;100.00;51320.88;5054740;28;19971;-65
2022/11/28 06:26:07;;;;;;;;;;;;;;;-143.57;100.00;51346.72;5059335;28;19932;-64
2022/11/28 06:28:34;;;;;;;;;;;;;;;-143.57;100.00;51340.75;5056473;28;19940;-65
2022/11/28 06:31:01;;;;;;;;;;;;;;;-143.57;100.00;51330.81;5065590;28;19932;-65
2022/11/28 06:33:27;;;;;;;;;;;;;;;-143.57;100.00;51362.63;5065985;28;19942;-65
2022/11/28 06:35:58;;;;;;;;;;;;;;;-143.57;100.00;51366.59;5055869;28;19931;-65
2022/11/28 06:38:25;;;;;;;;;;;;;;;-143.57;100.00;51310.94;5056343;28;20843;-65
2022/11/28 06:40:57;;;;;;;;;;;;;;;-143.57;100.00;51350.69;5059088;28;19929;-65
2022/11/28 06:43:24;;;;;;;;;;;;;;;-143.57;100.00;51299.00;5062730;28;19928;-65
2022/11/28 06:45:50;;;;;;;;;;;;;;;-143.57;100.00;51342.75;5055769;28;20436;-65
2022/11/28 06:48:17;;;;;;;;;;;;;;;-143.57;100.00;51318.88;5062666;28;19932;-65
2022/11/28 06:50:44;;;;;;;;;;;;;;;-143.57;100.00;51334.78;5064232;28;20528;-65
2022/11/28 06:53:11;;;;;;;;;;;;;;;-143.57;100.00;51370.56;5060954;28;19929;-65
2022/11/28 06:55:38;;;;;;;;;;;;;;;-143.57;100.00;51314.91;5060928;28;19931;-64
2022/11/28 06:58:05;;;;;;;;;;;;;;;-143.57;100.00;51342.75;5058205;28;19936;-65
2022/11/28 07:00:32;;;;;;;;;;;;;;;-143.57;100.00;51306.97;5063326;28;20013;-65
2022/11/28 07:02:58;;;;;;;;;;;;;;;-143.57;100.00;51330.81;5058097;28;19934;-65
2022/11/28 07:05:29;;;;;;;;;;;;;;;-143.57;100.00;51354.66;5060004;28;19932;-65
2022/11/28 07:07:56;;;;;;;;;;;;;;;-143.57;100.00;51332.81;5057971;28;19932;-65
2022/11/28 07:10:23;;;;;;;;;;;;;;;-143.57;100.00;51346.72;5060498;28;19928;-65
2022/11/28 07:12:53;;;;;;;;;;;;;;;-143.57;100.00;51334.78;5053658;28;19992;-65
2022/11/28 07:15:20;;;;;;;;;;;;;;;-143.57;100.00;51340.75;5052911;28;19935;-65
2022/11/28 07:17:47;;;;;;;;;;;;;;;-143.57;100.00;51374.56;5053649;28;19952;-65
2022/11/28 07:20:13;;;;;;;;;;;;;;;-143.57;100.00;51352.69;5057722;28;19924;-65
2022/11/28 07:22:41;;;;;;;;;;;;;;;-143.57;100.00;51374.56;5056011;28;19924;-65
2022/11/28 07:25:09;;;;;;;;;;;;;;;-143.57;100.00;51306.97;5059036;28;20681;-65
2022/11/28 07:27:35;;;;;;;;;;;;;;;-143.57;100.00;51350.69;5052744;28;19928;-65
2022/11/28 07:30:02;;;;;;;;;;;;;;;-143.57;100.00;51370.56;5057506;28;19928;-65
2022/11/28 07:32:31;;;;;;;;;;;;;;;-143.57;100.00;51354.66;5054914;28;20162;-65
2022/11/28 07:34:58;;;;;;;;;;;;;;;-143.57;100.00;51354.66;5054845;28;19932;-65
2022/11/28 07:37:24;;;;;;;;;;;;;;;-143.57;100.00;51346.72;5054918;28;19928;-65
2022/11/28 07:39:51;;;;;;;;;;;;;;;-143.57;100.00;51362.63;5052781;28;19932;-65
2022/11/28 07:42:18;;;;;;;;;;;;;;;-143.57;100.00;51344.72;5055476;28;19974;-64
2022/11/28 07:45:01;;;;;;;;;;;;;;;-143.57;100.00;51366.59;5055018;28;19963;-65
2022/11/28 07:47:28;;;;;;;;;;;;;;;-143.57;100.00;51338.78;5060856;28;20331;-65
2022/11/28 07:49:54;;;;;;;;;;;;;;;-143.57;100.00;51334.78;5054273;28;19983;-63
2022/11/28 07:52:21;;;;;;;;;;;;;;;-143.57;100.00;51334.78;5053863;28;19928;-62
2022/11/28 07:54:48;;;;;;;;;;;;;;;-143.57;100.00;51350.69;5052782;28;19982;-63
2022/11/28 07:57:15;;;;;;;;;;;;;;;-143.57;100.00;51406.34;5052661;28;19924;-62
2022/11/28 07:59:42;;;;;;;;;;;;;;;-143.57;100.00;51372.56;5058796;28;20043;-63
2022/11/28 08:02:09;;;;;;;;;;;;;;;-143.57;100.00;51356.66;5054473;28;19931;-63
2022/11/28 08:04:36;;;;;;;;;;;;;;;-143.57;100.00;51342.75;5051551;28;20025;-63
2022/11/28 08:07:05;;;;;;;;;;;;;;;-143.57;100.00;51366.59;5052099;28;19928;-63
2022/11/28 08:09:32;;;;;;;;;;;;;;;-143.57;100.00;51330.81;5052910;28;19972;-62
2022/11/28 08:11:59;;;;;;;;;;;;;;;-143.57;100.00;51304.97;5050146;28;19928;-63
2022/11/28 08:14:26;;;;;;;;;;;;;;;-143.57;100.00;51342.75;5061569;28;19932;-66
2022/11/28 08:16:54;;;;;;;;;;;;;;;-143.57;100.00;51330.81;5062423;28;20022;-77
2022/11/28 08:19:21;;;;;;;;;;;;;;;-143.57;100.00;51362.63;5072864;28;19932;-71
2022/11/28 08:21:50;;;;;;;;;;;;;;;-143.57;100.00;51303.00;5057563;28;19971;-70
2022/11/28 08:24:17;;;;;;;;;;;;;;;-143.57;100.00;51322.88;5056401;28;19928;-68
2022/11/28 08:26:43;;;;;;;;;;;;;;;-143.57;100.00;51386.47;5059591;28;20608;-67
2022/11/28 08:29:10;;;;;;;;;;;;;;;-143.57;100.00;51314.91;5055682;28;20004;-67
2022/11/28 08:31:37;;;;;;;;;;;;;;;-143.57;100.00;51354.66;5061318;28;20058;-67
2022/11/28 08:34:08;;;;;;;;;;;;;;;-143.57;100.00;51287.09;5056951;28;19924;-67
2022/11/28 08:36:35;;;;;;;;;;;;;;;-143.57;100.00;51318.88;5058614;28;19927;-68
2022/11/28 08:39:02;;;;;;;;;;;;;;;-143.57;100.00;51390.47;5057512;28;20605;-68
2022/11/28 08:41:49;;;;;;;;;;;;;;;-143.57;100.00;51362.63;5063813;28;19932;-69
2022/11/28 08:44:16;;;;;;;;;;;;;;;-143.57;100.00;51338.78;5060878;28;19993;-69
2022/11/28 08:46:43;;;;;;;;;;;;;;;-143.57;100.00;51366.59;5065391;28;19938;-69
2022/11/28 08:49:09;;;;;;;;;;;;;;;-143.57;100.00;51330.81;5058138;28;20609;-69
2022/11/28 08:51:36;;;;;;;;;;;;;;;-143.57;100.00;51370.56;5065271;28;19977;-68
2022/11/28 08:54:03;;;;;;;;;;;;;;;-143.57;100.00;51362.63;5062893;28;19924;-68
2022/11/28 08:56:29;;;;;;;;;;;;;;;-143.57;100.00;51354.66;5065161;28;20405;-69
2022/11/28 08:58:56;;;;;;;;;;;;;;;-143.57;100.00;51312.94;5066864;28;19962;-69
2022/11/28 09:01:23;;;;;;;;;;;;;;;-143.57;100.00;51338.78;5063865;28;20676;-72
2022/11/28 09:03:51;;;;;;;;;;;;;;;-143.57;100.00;51326.84;5063183;28;20015;-68
2022/11/28 09:06:19;;;;;;;;;;;;;;;-143.57;100.00;51348.72;5063826;28;20047;-66
2022/11/28 09:08:46;;;;;;;;;;;;;;;-143.57;100.00;51322.88;5067695;28;19924;-66
2022/11/28 09:11:14;;;;;;;;;;;;;;;-143.57;100.00;51370.56;5056353;28;20444;-68
2022/11/28 09:13:41;;;;;;;;;;;;;;;-143.57;100.00;51346.72;5054032;28;19924;-66
2022/11/28 09:16:08;;;;;;;;;;;;;;;-143.57;100.00;51334.78;5064781;28;19936;-68
2022/11/28 09:18:36;;;;;;;;;;;;;;;-143.57;100.00;51334.78;5064310;28;19928;-65
2022/11/28 09:21:04;;;;;;;;;;;;;;;-143.57;100.00;51310.94;5055885;28;19928;-65
2022/11/28 09:23:30;;;;;;;;;;;;;;;-143.57;100.00;51362.63;5057827;28;19936;-65
2022/11/28 09:25:57;;;;;;;;;;;;;;;-143.57;100.00;51370.56;5058123;28;19932;-65
2022/11/28 09:28:24;;;;;;;;;;;;;;;-143.57;100.00;51370.56;5056463;28;19994;-65
2022/11/28 09:30:58;;;;;;;;;;;;;;;-143.57;100.00;51352.69;5064283;28;20151;-65
2022/11/28 09:33:24;;;;;;;;;;;;;;;-143.57;100.00;51328.81;5056754;28;19960;-65
2022/11/28 09:35:51;;;;;;;;;;;;;;;-143.57;100.00;51334.78;5061272;28;19932;-66
2022/11/28 09:38:17;;;;;;;;;;;;;;;-143.57;100.00;51322.88;5051856;28;20246;-65
2022/11/28 09:40:44;;;;;;;;;;;;;;;-143.57;100.00;51330.81;5062733;28;19998;-68
2022/11/28 09:43:14;;;;;;;;;;;;;;;-143.57;100.00;51330.81;5066000;28;20388;-66
2022/11/28 09:45:41;;;;;;;;;;;;;;;-143.57;100.00;51310.94;5059635;28;19979;-65
2022/11/28 09:48:21;;;;;;;;;;;;;;;-143.57;100.00;51338.78;5059156;28;19936;-68
2022/11/28 09:50:50;;;;;;;;;;;;;;;-143.57;100.00;51354.66;5063837;28;20663;-67
2022/11/28 09:53:29;;;;;;;;;;;;;;;-143.57;100.00;51318.88;5054453;28;19971;-66
2022/11/28 09:56:03;;;;;;;;;;;;;;;-143.57;100.00;51366.59;5062383;28;20136;-67
2022/11/28 09:58:49;;;;;;;;;;;;;;;-143.57;100.00;51334.78;5055824;28;19920;-66
2022/11/28 10:01:15;;;;;;;;;;;;;;;-143.57;100.00;51350.69;5063158;28;19928;-66
2022/11/28 10:03:54;;;;;;;;;;;;;;;-143.57;100.00;51350.69;5060286;28;20960;-67
2022/11/28 10:06:24;;;;;;;;;;;;;;;-143.57;100.00;51346.72;5056741;27;19929;-62
2022/11/28 10:09:00;;;;;;;;;;;;;;;-143.57;100.00;51338.78;5061647;28;19925;-64
2022/11/28 10:11:39;;;;;;;;;;;;;;;-143.57;100.00;51322.88;5065662;28;20640;-68
2022/11/28 10:14:24;;;;;;;;;;;;;;;-143.57;100.00;51310.94;5063048;28;20019;-64
2022/11/28 10:16:50;;;;;;;;;;;;;;;-143.57;100.00;51310.94;5063509;28;20002;-70
2022/11/28 10:19:22;;;;;;;;;;;;;;;-143.57;100.00;51306.97;5066993;28;19920;-69
2022/11/28 10:22:12;;;;;;;;;;;;;;;-143.57;100.00;51303.00;5062308;28;19928;-69
2022/11/28 10:24:49;;;;;;;;;;;;;;;-143.57;100.00;51342.75;5053780;28;19942;-74
2022/11/28 10:27:16;;;;;;;;;;;;;;;-143.57;100.00;51348.72;5054855;28;19933;-66
2022/11/28 10:29:52;;;;;;;;;;;;;;;-143.57;100.00;51338.78;5048784;28;19939;-66
2022/11/28 10:32:20;;;;;;;;;;;;;;;-143.57;100.00;51332.81;5053672;28;19975;-66
2022/11/28 10:34:52;;;;;;;;;;;;;;;-143.57;100.00;51338.78;5056463;28;19929;-66
2022/11/28 10:37:20;;;;;;;;;;;;;;;-143.57;100.00;51342.75;5057811;28;20015;-67
2022/11/28 10:39:47;;;;;;;;;;;;;;;-143.57;100.00;51336.78;5059529;28;19928;-66
2022/11/28 10:42:17;;;;;;;;;;;;;;;-143.57;100.00;51326.84;5057381;28;19928;-65
2022/11/28 10:45:16;;;;;;;;;;;;;;;-143.57;100.00;51326.84;5058984;28;21417;-65
2022/11/28 10:47:50;;;;;;;;;;;;;;;-143.57;100.00;51350.69;5049728;28;19941;-65
2022/11/28 10:50:43;;;;;;;;;;;;;;;-143.57;100.00;51299.00;5053315;28;19928;-65
2022/11/28 10:53:10;;;;;;;;;;;;;;;-143.57;100.00;51344.72;5050519;28;19928;-66
2022/11/28 10:55:42;;;;;;;;;;;;;;;-143.57;100.00;51354.66;5061938;28;20270;-64
2022/11/28 10:58:18;;;;;;;;;;;;;;;-143.57;100.00;51342.75;5056246;28;20377;-65
2022/11/28 11:00:48;;;;;;;;;;;;;;;-143.57;100.00;51346.72;5052364;28;19924;-64
2022/11/28 11:03:16;;;;;;;;;;;;;;;-143.57;100.00;51342.75;5058334;28;19947;-66
2022/11/28 11:05:43;;;;;;;;;;;;;;;-143.57;100.00;51336.78;5057513;28;19928;-65
2022/11/28 11:08:20;;;;;;;;;;;;;;;-143.57;100.00;51314.91;5058864;28;19990;-66
2022/11/28 11:10:50;;;;;;;;;;;;;;;-143.57;100.00;51326.84;5059828;28;19986;-65
2022/11/28 11:13:22;;;;;;;;;;;;;;;-143.57;100.00;51330.81;5061799;28;19929;-64
2022/11/28 11:15:56;;;;;;;;;;;;;;;-143.57;100.00;51334.78;5056814;28;19928;-65
2022/11/28 11:18:26;;;;;;;;;;;;;;;-143.57;100.00;51338.78;5055190;28;20007;-65
2022/11/28 11:21:07;;;;;;;;;;;;;;;-143.57;100.00;51362.63;5059907;28;19993;-65
2022/11/28 11:23:34;;;;;;;;;;;;;;;-143.57;100.00;51390.47;5059292;28;19936;-65
2022/11/28 11:26:08;;;;;;;;;;;;;;;-143.57;100.00;51306.97;5063882;28;19928;-63
2022/11/28 11:28:35;;;;;;;;;;;;;;;-143.57;100.00;51342.75;5060235;28;19935;-63
2022/11/28 11:31:04;;;;;;;;;;;;;;;-143.57;100.00;51346.72;5059760;28;19925;-66
2022/11/28 11:33:34;;;;;;;;;;;;;;;-143.57;100.00;51336.78;5058845;28;19924;-65
2022/11/28 11:36:03;;;;;;;;;;;;;;;-143.57;100.00;51346.72;5060452;28;19927;-65
2022/11/28 11:38:32;;;;;;;;;;;;;;;-143.57;100.00;51330.81;5058681;28;19932;-66
2022/11/28 11:41:17;;;;;;;;;;;;;;;-143.57;100.00;51314.91;5058875;28;20006;-64
2022/11/28 11:43:44;;;;;;;;;;;;;;;-143.57;100.00;51346.72;5059797;28;20525;-65
2022/11/28 11:46:12;;;;;;;;;;;;;;;-143.57;100.00;51336.78;5060816;28;19928;-65
2022/11/28 11:48:40;;;;;;;;;;;;;;;-143.57;100.00;51350.69;5059582;28;20011;-65
2022/11/28 11:51:27;;;;;;;;;;;;;;;-143.57;100.00;51318.88;5064886;28;19925;-65
2022/11/28 11:54:00;;;;;;;;;;;;;;;-143.57;100.00;51304.97;5056205;28;19935;-65
2022/11/28 11:56:30;;;;;;;;;;;;;;;-143.57;100.00;51354.66;5056435;28;20441;-66
2022/11/28 11:58:57;;;;;;;;;;;;;;;-143.57;100.00;51326.84;5060495;28;19924;-65
2022/11/28 12:01:25;;;;;;;;;;;;;;;-143.57;100.00;51304.97;5058474;28;19925;-65
2022/11/28 12:03:53;;;;;;;;;;;;;;;-143.57;100.00;51326.84;5057933;28;19933;-65
2022/11/28 12:06:26;;;;;;;;;;;;;;;-143.57;100.00;51378.53;5060429;28;19939;-65
2022/11/28 12:08:59;;;;;;;;;;;;;;;-143.57;100.00;51287.09;5063679;28;19974;-66
2022/11/28 12:11:37;;;;;;;;;;;;;;;-143.57;100.00;51334.78;5054156;28;19944;-65
2022/11/28 12:14:31;;;;;;;;;;;;;;;-143.57;100.00;51326.84;5057329;28;19947;-65
2022/11/28 12:17:07;;;;;;;;;;;;;;;-143.57;100.00;51310.94;5053646;28;19925;-68
2022/11/28 12:20:26;;;;;;;;;;;;;;;-143.57;100.00;51326.84;5060859;28;19939;-68
2022/11/28 12:22:53;;;;;;;;;;;;;;;-143.57;100.00;51310.94;5072767;28;19924;-67
2022/11/28 12:25:20;;;;;;;;;;;;;;;-143.57;100.00;51303.00;5068199;28;19920;-67
2022/11/28 12:27:49;;;;;;;;;;;;;;;-143.57;100.00;51362.63;5054531;28;19932;-69
2022/11/28 12:30:34;;;;;;;;;;;;;;;-143.57;100.00;51316.91;5054566;28;20573;-71
2022/11/28 12:33:22;;;;;;;;;;;;;;;-143.57;100.00;51342.75;5052457;28;20021;-71
2022/11/28 12:36:18;;;;;;;;;;;;;;;-143.57;100.00;51330.81;5056044;28;20788;-71